sensor_id;sensor_type;location;lat;lon;timestamp;P1;durP1;ratioP1;P2;durP2;ratioP2
20855;SDS011;63058;49.424;8.420;2024-02-04T00:00:14;0.90;;;0.80;;
20855;SDS011;63058;49.424;8.420;2024-02-04T00:02:40;1.10;;;1.00;;
20855;SDS011;63058;49.424;8.420;2024-02-04T00:05:06;0.98;;;0.80;;
20855;SDS011;63058;49.424;8.420;2024-02-04T00:07:31;1.00;;;0.70;;
20855;SDS011;63058;49.424;8.420;2024-02-04T00:09:57;1.45;;;1.15;;
20855;SDS011;63058;49.424;8.420;2024-02-04T00:12:23;1.10;;;1.00;;
20855;SDS011;63058;49.424;8.420;2024-02-04T00:14:48;1.60;;;0.90;;
20855;SDS011;63058;49.424;8.420;2024-02-04T00:17:14;1.20;;;1.00;;
20855;SDS011;63058;49.424;8.420;2024-02-04T00:19:41;0.70;;;0.70;;
20855;SDS011;63058;49.424;8.420;2024-02-04T00:22:06;0.60;;;0.60;;
20855;SDS011;63058;49.424;8.420;2024-02-04T00:24:32;1.00;;;0.60;;
20855;SDS011;63058;49.424;8.420;2024-02-04T00:26:57;0.60;;;0.60;;
20855;SDS011;63058;49.424;8.420;2024-02-04T00:29:23;0.75;;;0.50;;
20855;SDS011;63058;49.424;8.420;2024-02-04T00:31:49;0.50;;;0.50;;
20855;SDS011;63058;49.424;8.420;2024-02-04T00:34:14;0.30;;;0.30;;
20855;SDS011;63058;49.424;8.420;2024-02-04T00:36:40;0.40;;;0.40;;
20855;SDS011;63058;49.424;8.420;2024-02-04T00:39:05;0.40;;;0.40;;
20855;SDS011;63058;49.424;8.420;2024-02-04T00:41:32;0.40;;;0.40;;
20855;SDS011;63058;49.424;8.420;2024-02-04T00:43:58;0.32;;;0.32;;
20855;SDS011;63058;49.424;8.420;2024-02-04T00:46:24;0.40;;;0.40;;
20855;SDS011;63058;49.424;8.420;2024-02-04T00:48:50;0.50;;;0.50;;
20855;SDS011;63058;49.424;8.420;2024-02-04T00:51:15;0.90;;;0.50;;
20855;SDS011;63058;49.424;8.420;2024-02-04T00:53:44;0.35;;;0.35;;
20855;SDS011;63058;49.424;8.420;2024-02-04T00:56:10;0.40;;;0.32;;
20855;SDS011;63058;49.424;8.420;2024-02-04T00:58:36;0.50;;;0.50;;
20855;SDS011;63058;49.424;8.420;2024-02-04T01:01:03;0.30;;;0.30;;
20855;SDS011;63058;49.424;8.420;2024-02-04T01:03:29;0.70;;;0.40;;
20855;SDS011;63058;49.424;8.420;2024-02-04T01:05:55;0.45;;;0.40;;
20855;SDS011;63058;49.424;8.420;2024-02-04T01:08:21;0.55;;;0.50;;
20855;SDS011;63058;49.424;8.420;2024-02-04T01:10:47;0.60;;;0.40;;
20855;SDS011;63058;49.424;8.420;2024-02-04T01:13:13;0.50;;;0.50;;
20855;SDS011;63058;49.424;8.420;2024-02-04T01:15:39;0.50;;;0.50;;
20855;SDS011;63058;49.424;8.420;2024-02-04T01:18:04;0.40;;;0.40;;
20855;SDS011;63058;49.424;8.420;2024-02-04T01:20:30;0.40;;;0.40;;
20855;SDS011;63058;49.424;8.420;2024-02-04T01:22:55;0.60;;;0.40;;
20855;SDS011;63058;49.424;8.420;2024-02-04T01:25:21;0.65;;;0.60;;
20855;SDS011;63058;49.424;8.420;2024-02-04T01:27:47;0.30;;;0.30;;
20855;SDS011;63058;49.424;8.420;2024-02-04T01:30:12;0.30;;;0.30;;
20855;SDS011;63058;49.424;8.420;2024-02-04T01:32:38;0.98;;;0.40;;
20855;SDS011;63058;49.424;8.420;2024-02-04T01:35:03;1.08;;;0.40;;
20855;SDS011;63058;49.424;8.420;2024-02-04T01:37:29;0.85;;;0.43;;
20855;SDS011;63058;49.424;8.420;2024-02-04T01:39:55;0.85;;;0.43;;
20855;SDS011;63058;49.424;8.420;2024-02-04T01:42:20;0.63;;;0.40;;
20855;SDS011;63058;49.424;8.420;2024-02-04T01:44:46;0.85;;;0.40;;
20855;SDS011;63058;49.424;8.420;2024-02-04T01:47:11;0.50;;;0.32;;
20855;SDS011;63058;49.424;8.420;2024-02-04T01:49:37;0.52;;;0.50;;
20855;SDS011;63058;49.424;8.420;2024-02-04T01:52:03;0.43;;;0.40;;
20855;SDS011;63058;49.424;8.420;2024-02-04T01:54:31;0.50;;;0.40;;
20855;SDS011;63058;49.424;8.420;2024-02-04T01:56:58;0.45;;;0.45;;
20855;SDS011;63058;49.424;8.420;2024-02-04T01:59:26;0.60;;;0.50;;
20855;SDS011;63058;49.424;8.420;2024-02-04T02:01:55;2.28;;;0.45;;
20855;SDS011;63058;49.424;8.420;2024-02-04T02:04:24;0.60;;;0.50;;
20855;SDS011;63058;49.424;8.420;2024-02-04T02:06:50;0.30;;;0.30;;
20855;SDS011;63058;49.424;8.420;2024-02-04T02:09:17;0.85;;;0.50;;
20855;SDS011;63058;49.424;8.420;2024-02-04T02:11:44;0.43;;;0.43;;
20855;SDS011;63058;49.424;8.420;2024-02-04T02:14:16;0.40;;;0.40;;
20855;SDS011;63058;49.424;8.420;2024-02-04T02:16:44;0.55;;;0.45;;
20855;SDS011;63058;49.424;8.420;2024-02-04T02:22:01;0.50;;;0.50;;
20855;SDS011;63058;49.424;8.420;2024-02-04T02:24:35;0.55;;;0.50;;
20855;SDS011;63058;49.424;8.420;2024-02-04T02:27:03;0.60;;;0.50;;
20855;SDS011;63058;49.424;8.420;2024-02-04T02:29:30;0.40;;;0.40;;
20855;SDS011;63058;49.424;8.420;2024-02-04T02:31:57;0.63;;;0.63;;
20855;SDS011;63058;49.424;8.420;2024-02-04T02:34:23;0.90;;;0.68;;
20855;SDS011;63058;49.424;8.420;2024-02-04T02:39:56;0.55;;;0.50;;
20855;SDS011;63058;49.424;8.420;2024-02-04T02:42:25;0.52;;;0.50;;
20855;SDS011;63058;49.424;8.420;2024-02-04T02:44:52;0.50;;;0.50;;
20855;SDS011;63058;49.424;8.420;2024-02-04T02:47:20;1.42;;;0.50;;
20855;SDS011;63058;49.424;8.420;2024-02-04T02:49:47;0.80;;;0.55;;
20855;SDS011;63058;49.424;8.420;2024-02-04T02:52:15;1.45;;;0.60;;
20855;SDS011;63058;49.424;8.420;2024-02-04T02:54:41;0.50;;;0.50;;
20855;SDS011;63058;49.424;8.420;2024-02-04T02:57:06;0.60;;;0.50;;
20855;SDS011;63058;49.424;8.420;2024-02-04T02:59:32;0.43;;;0.43;;
20855;SDS011;63058;49.424;8.420;2024-02-04T03:01:57;0.82;;;0.63;;
20855;SDS011;63058;49.424;8.420;2024-02-04T03:04:23;0.60;;;0.50;;
20855;SDS011;63058;49.424;8.420;2024-02-04T03:06:48;1.92;;;0.52;;
20855;SDS011;63058;49.424;8.420;2024-02-04T03:09:14;0.43;;;0.43;;
20855;SDS011;63058;49.424;8.420;2024-02-04T03:11:39;0.50;;;0.50;;
20855;SDS011;63058;49.424;8.420;2024-02-04T03:14:05;0.50;;;0.50;;
20855;SDS011;63058;49.424;8.420;2024-02-04T03:16:31;0.68;;;0.50;;
20855;SDS011;63058;49.424;8.420;2024-02-04T03:18:56;1.00;;;0.50;;
20855;SDS011;63058;49.424;8.420;2024-02-04T03:21:22;0.40;;;0.40;;
20855;SDS011;63058;49.424;8.420;2024-02-04T03:23:47;0.50;;;0.40;;
20855;SDS011;63058;49.424;8.420;2024-02-04T03:26:16;0.50;;;0.40;;
20855;SDS011;63058;49.424;8.420;2024-02-04T03:28:44;0.35;;;0.35;;
20855;SDS011;63058;49.424;8.420;2024-02-04T03:31:09;0.40;;;0.40;;
20855;SDS011;63058;49.424;8.420;2024-02-04T03:33:35;0.50;;;0.40;;
20855;SDS011;63058;49.424;8.420;2024-02-04T03:36:01;0.50;;;0.50;;
20855;SDS011;63058;49.424;8.420;2024-02-04T03:38:26;0.80;;;0.50;;
20855;SDS011;63058;49.424;8.420;2024-02-04T03:40:52;0.40;;;0.32;;
20855;SDS011;63058;49.424;8.420;2024-02-04T03:43:17;0.30;;;0.30;;
20855;SDS011;63058;49.424;8.420;2024-02-04T03:45:43;0.57;;;0.50;;
20855;SDS011;63058;49.424;8.420;2024-02-04T03:48:08;0.50;;;0.43;;
20855;SDS011;63058;49.424;8.420;2024-02-04T03:50:35;0.40;;;0.40;;
20855;SDS011;63058;49.424;8.420;2024-02-04T03:53:01;0.50;;;0.50;;
20855;SDS011;63058;49.424;8.420;2024-02-04T03:55:26;0.45;;;0.45;;
20855;SDS011;63058;49.424;8.420;2024-02-04T03:57:52;0.98;;;0.60;;
20855;SDS011;63058;49.424;8.420;2024-02-04T04:00:19;0.50;;;0.45;;
20855;SDS011;63058;49.424;8.420;2024-02-04T04:02:45;0.50;;;0.50;;
20855;SDS011;63058;49.424;8.420;2024-02-04T04:05:11;0.75;;;0.50;;
20855;SDS011;63058;49.424;8.420;2024-02-04T04:07:39;0.40;;;0.40;;
20855;SDS011;63058;49.424;8.420;2024-02-04T04:10:05;0.47;;;0.47;;
20855;SDS011;63058;49.424;8.420;2024-02-04T04:12:31;0.40;;;0.40;;
20855;SDS011;63058;49.424;8.420;2024-02-04T04:14:57;0.47;;;0.47;;
20855;SDS011;63058;49.424;8.420;2024-02-04T04:17:23;0.47;;;0.43;;
20855;SDS011;63058;49.424;8.420;2024-02-04T04:19:48;0.38;;;0.38;;
20855;SDS011;63058;49.424;8.420;2024-02-04T04:22:14;1.00;;;0.50;;
20855;SDS011;63058;49.424;8.420;2024-02-04T04:24:39;2.15;;;0.50;;
20855;SDS011;63058;49.424;8.420;2024-02-04T04:27:06;0.63;;;0.43;;
20855;SDS011;63058;49.424;8.420;2024-02-04T04:29:32;0.50;;;0.50;;
20855;SDS011;63058;49.424;8.420;2024-02-04T04:31:57;0.50;;;0.45;;
20855;SDS011;63058;49.424;8.420;2024-02-04T04:34:23;0.50;;;0.50;;
20855;SDS011;63058;49.424;8.420;2024-02-04T04:36:48;0.50;;;0.45;;
20855;SDS011;63058;49.424;8.420;2024-02-04T04:39:14;0.40;;;0.40;;
20855;SDS011;63058;49.424;8.420;2024-02-04T04:41:41;0.50;;;0.50;;
20855;SDS011;63058;49.424;8.420;2024-02-04T04:44:08;0.55;;;0.40;;
20855;SDS011;63058;49.424;8.420;2024-02-04T04:46:37;0.50;;;0.40;;
20855;SDS011;63058;49.424;8.420;2024-02-04T04:49:04;0.38;;;0.30;;
20855;SDS011;63058;49.424;8.420;2024-02-04T04:51:29;0.75;;;0.40;;
20855;SDS011;63058;49.424;8.420;2024-02-04T04:53:55;0.30;;;0.30;;
20855;SDS011;63058;49.424;8.420;2024-02-04T04:56:21;0.43;;;0.40;;
20855;SDS011;63058;49.424;8.420;2024-02-04T04:58:46;0.40;;;0.40;;
20855;SDS011;63058;49.424;8.420;2024-02-04T05:01:12;0.43;;;0.38;;
20855;SDS011;63058;49.424;8.420;2024-02-04T05:03:37;0.55;;;0.50;;
20855;SDS011;63058;49.424;8.420;2024-02-04T05:06:03;0.40;;;0.40;;
20855;SDS011;63058;49.424;8.420;2024-02-04T05:08:29;0.30;;;0.30;;
20855;SDS011;63058;49.424;8.420;2024-02-04T05:10:54;0.77;;;0.38;;
20855;SDS011;63058;49.424;8.420;2024-02-04T05:13:20;0.47;;;0.40;;
20855;SDS011;63058;49.424;8.420;2024-02-04T05:15:46;0.30;;;0.30;;
20855;SDS011;63058;49.424;8.420;2024-02-04T05:18:11;0.32;;;0.32;;
20855;SDS011;63058;49.424;8.420;2024-02-04T05:20:37;0.30;;;0.30;;
20855;SDS011;63058;49.424;8.420;2024-02-04T05:23:02;1.65;;;0.40;;
20855;SDS011;63058;49.424;8.420;2024-02-04T05:25:28;0.55;;;0.40;;
20855;SDS011;63058;49.424;8.420;2024-02-04T05:27:53;0.55;;;0.40;;
20855;SDS011;63058;49.424;8.420;2024-02-04T05:30:19;0.30;;;0.30;;
20855;SDS011;63058;49.424;8.420;2024-02-04T05:32:45;0.30;;;0.30;;
20855;SDS011;63058;49.424;8.420;2024-02-04T05:35:10;1.98;;;0.50;;
20855;SDS011;63058;49.424;8.420;2024-02-04T05:37:36;0.57;;;0.40;;
20855;SDS011;63058;49.424;8.420;2024-02-04T05:40:02;0.50;;;0.40;;
20855;SDS011;63058;49.424;8.420;2024-02-04T05:42:28;2.33;;;0.70;;
20855;SDS011;63058;49.424;8.420;2024-02-04T05:44:56;1.58;;;1.00;;
20855;SDS011;63058;49.424;8.420;2024-02-04T05:47:22;0.60;;;0.60;;
20855;SDS011;63058;49.424;8.420;2024-02-04T05:49:48;0.90;;;0.60;;
20855;SDS011;63058;49.424;8.420;2024-02-04T05:52:14;0.60;;;0.52;;
20855;SDS011;63058;49.424;8.420;2024-02-04T05:54:39;0.50;;;0.50;;
20855;SDS011;63058;49.424;8.420;2024-02-04T05:57:05;0.30;;;0.30;;
20855;SDS011;63058;49.424;8.420;2024-02-04T05:59:31;0.30;;;0.30;;
20855;SDS011;63058;49.424;8.420;2024-02-04T06:01:57;0.43;;;0.43;;
20855;SDS011;63058;49.424;8.420;2024-02-04T06:04:23;1.00;;;0.30;;
20855;SDS011;63058;49.424;8.420;2024-02-04T06:06:48;0.20;;;0.20;;
20855;SDS011;63058;49.424;8.420;2024-02-04T06:09:14;1.08;;;0.30;;
20855;SDS011;63058;49.424;8.420;2024-02-04T06:11:44;0.40;;;0.40;;
20855;SDS011;63058;49.424;8.420;2024-02-04T06:14:10;0.65;;;0.40;;
20855;SDS011;63058;49.424;8.420;2024-02-04T06:16:36;0.45;;;0.30;;
20855;SDS011;63058;49.424;8.420;2024-02-04T06:19:01;0.30;;;0.30;;
20855;SDS011;63058;49.424;8.420;2024-02-04T06:21:27;0.30;;;0.30;;
20855;SDS011;63058;49.424;8.420;2024-02-04T06:23:52;0.32;;;0.32;;
20855;SDS011;63058;49.424;8.420;2024-02-04T06:26:18;0.35;;;0.30;;
20855;SDS011;63058;49.424;8.420;2024-02-04T06:28:43;1.17;;;0.40;;
20855;SDS011;63058;49.424;8.420;2024-02-04T06:31:11;0.55;;;0.50;;
20855;SDS011;63058;49.424;8.420;2024-02-04T06:33:38;0.60;;;0.50;;
20855;SDS011;63058;49.424;8.420;2024-02-04T06:36:08;0.43;;;0.43;;
20855;SDS011;63058;49.424;8.420;2024-02-04T06:38:34;0.40;;;0.40;;
20855;SDS011;63058;49.424;8.420;2024-02-04T06:40:59;0.57;;;0.50;;
20855;SDS011;63058;49.424;8.420;2024-02-04T06:43:25;1.23;;;0.50;;
20855;SDS011;63058;49.424;8.420;2024-02-04T06:45:50;0.50;;;0.50;;
20855;SDS011;63058;49.424;8.420;2024-02-04T06:48:18;0.40;;;0.40;;
20855;SDS011;63058;49.424;8.420;2024-02-04T06:50:44;0.63;;;0.60;;
20855;SDS011;63058;49.424;8.420;2024-02-04T06:53:10;0.70;;;0.60;;
20855;SDS011;63058;49.424;8.420;2024-02-04T06:55:36;0.70;;;0.70;;
20855;SDS011;63058;49.424;8.420;2024-02-04T06:58:01;0.63;;;0.60;;
20855;SDS011;63058;49.424;8.420;2024-02-04T07:00:27;0.50;;;0.50;;
20855;SDS011;63058;49.424;8.420;2024-02-04T07:02:53;1.17;;;0.98;;
20855;SDS011;63058;49.424;8.420;2024-02-04T07:05:19;1.20;;;0.70;;
20855;SDS011;63058;49.424;8.420;2024-02-04T07:07:47;0.60;;;0.60;;
20855;SDS011;63058;49.424;8.420;2024-02-04T07:10:13;1.40;;;0.80;;
20855;SDS011;63058;49.424;8.420;2024-02-04T07:12:38;1.80;;;0.90;;
20855;SDS011;63058;49.424;8.420;2024-02-04T07:15:04;0.82;;;0.68;;
20855;SDS011;63058;49.424;8.420;2024-02-04T07:17:30;0.70;;;0.70;;
20855;SDS011;63058;49.424;8.420;2024-02-04T07:19:55;1.45;;;0.90;;
20855;SDS011;63058;49.424;8.420;2024-02-04T07:22:21;0.95;;;0.63;;
20855;SDS011;63058;49.424;8.420;2024-02-04T07:24:47;1.10;;;1.00;;
20855;SDS011;63058;49.424;8.420;2024-02-04T07:27:12;0.90;;;0.80;;
20855;SDS011;63058;49.424;8.420;2024-02-04T07:29:38;0.98;;;0.80;;
20855;SDS011;63058;49.424;8.420;2024-02-04T07:32:03;0.90;;;0.90;;
20855;SDS011;63058;49.424;8.420;2024-02-04T07:34:29;0.60;;;0.60;;
20855;SDS011;63058;49.424;8.420;2024-02-04T07:36:55;1.00;;;0.82;;
20855;SDS011;63058;49.424;8.420;2024-02-04T07:39:20;0.80;;;0.75;;
20855;SDS011;63058;49.424;8.420;2024-02-04T07:41:46;1.10;;;1.00;;
20855;SDS011;63058;49.424;8.420;2024-02-04T07:44:11;0.80;;;0.80;;
20855;SDS011;63058;49.424;8.420;2024-02-04T07:46:38;1.75;;;1.00;;
20855;SDS011;63058;49.424;8.420;2024-02-04T07:49:03;1.02;;;0.90;;
20855;SDS011;63058;49.424;8.420;2024-02-04T07:51:29;1.73;;;1.33;;
20855;SDS011;63058;49.424;8.420;2024-02-04T07:53:55;1.15;;;1.05;;
20855;SDS011;63058;49.424;8.420;2024-02-04T07:56:20;1.98;;;1.20;;
20855;SDS011;63058;49.424;8.420;2024-02-04T07:58:46;1.90;;;1.20;;
20855;SDS011;63058;49.424;8.420;2024-02-04T08:01:11;1.95;;;1.35;;
20855;SDS011;63058;49.424;8.420;2024-02-04T08:03:37;1.75;;;1.30;;
20855;SDS011;63058;49.424;8.420;2024-02-04T08:06:02;2.03;;;1.27;;
20855;SDS011;63058;49.424;8.420;2024-02-04T08:08:28;1.33;;;1.05;;
20855;SDS011;63058;49.424;8.420;2024-02-04T08:10:53;1.70;;;1.40;;
20855;SDS011;63058;49.424;8.420;2024-02-04T08:13:20;1.10;;;1.00;;
20855;SDS011;63058;49.424;8.420;2024-02-04T08:15:45;1.20;;;1.08;;
20855;SDS011;63058;49.424;8.420;2024-02-04T08:18:11;1.48;;;1.20;;
20855;SDS011;63058;49.424;8.420;2024-02-04T08:20:36;3.65;;;1.67;;
20855;SDS011;63058;49.424;8.420;2024-02-04T08:23:02;1.40;;;1.05;;
20855;SDS011;63058;49.424;8.420;2024-02-04T08:25:28;1.15;;;0.95;;
20855;SDS011;63058;49.424;8.420;2024-02-04T08:27:53;1.65;;;1.17;;
20855;SDS011;63058;49.424;8.420;2024-02-04T08:30:19;1.42;;;1.33;;
20855;SDS011;63058;49.424;8.420;2024-02-04T08:32:45;1.95;;;1.25;;
20855;SDS011;63058;49.424;8.420;2024-02-04T08:35:10;1.50;;;1.00;;
20855;SDS011;63058;49.424;8.420;2024-02-04T08:37:36;1.58;;;1.08;;
20855;SDS011;63058;49.424;8.420;2024-02-04T08:40:02;1.70;;;1.02;;
20855;SDS011;63058;49.424;8.420;2024-02-04T08:42:30;0.90;;;0.75;;
20855;SDS011;63058;49.424;8.420;2024-02-04T08:44:56;1.05;;;0.80;;
20855;SDS011;63058;49.424;8.420;2024-02-04T08:47:21;2.00;;;0.80;;
20855;SDS011;63058;49.424;8.420;2024-02-04T08:49:47;1.00;;;0.80;;
20855;SDS011;63058;49.424;8.420;2024-02-04T08:52:12;1.20;;;0.90;;
20855;SDS011;63058;49.424;8.420;2024-02-04T08:54:38;1.98;;;0.80;;
20855;SDS011;63058;49.424;8.420;2024-02-04T08:57:04;0.68;;;0.68;;
20855;SDS011;63058;49.424;8.420;2024-02-04T08:59:29;0.73;;;0.70;;
20855;SDS011;63058;49.424;8.420;2024-02-04T09:01:55;1.48;;;0.80;;
20855;SDS011;63058;49.424;8.420;2024-02-04T09:04:20;0.70;;;0.60;;
20855;SDS011;63058;49.424;8.420;2024-02-04T09:06:46;0.60;;;0.60;;
20855;SDS011;63058;49.424;8.420;2024-02-04T09:09:11;0.55;;;0.50;;
20855;SDS011;63058;49.424;8.420;2024-02-04T09:11:37;0.40;;;0.40;;
20855;SDS011;63058;49.424;8.420;2024-02-04T09:14:03;0.70;;;0.60;;
20855;SDS011;63058;49.424;8.420;2024-02-04T09:16:29;0.68;;;0.63;;
20855;SDS011;63058;49.424;8.420;2024-02-04T09:18:54;0.63;;;0.50;;
20855;SDS011;63058;49.424;8.420;2024-02-04T09:21:20;0.80;;;0.60;;
20855;SDS011;63058;49.424;8.420;2024-02-04T09:23:47;0.55;;;0.55;;
20855;SDS011;63058;49.424;8.420;2024-02-04T09:26:13;0.50;;;0.50;;
20855;SDS011;63058;49.424;8.420;2024-02-04T09:28:39;0.70;;;0.60;;
20855;SDS011;63058;49.424;8.420;2024-02-04T09:31:07;0.63;;;0.60;;
20855;SDS011;63058;49.424;8.420;2024-02-04T09:33:33;0.70;;;0.60;;
20855;SDS011;63058;49.424;8.420;2024-02-04T09:36:00;0.60;;;0.55;;
20855;SDS011;63058;49.424;8.420;2024-02-04T09:38:26;0.75;;;0.55;;
20855;SDS011;63058;49.424;8.420;2024-02-04T09:40:51;0.47;;;0.47;;
20855;SDS011;63058;49.424;8.420;2024-02-04T09:43:17;0.65;;;0.50;;
20855;SDS011;63058;49.424;8.420;2024-02-04T09:45:44;0.95;;;0.40;;
20855;SDS011;63058;49.424;8.420;2024-02-04T09:48:10;0.85;;;0.55;;
20855;SDS011;63058;49.424;8.420;2024-02-04T09:50:37;0.63;;;0.50;;
20855;SDS011;63058;49.424;8.420;2024-02-04T09:53:03;0.80;;;0.60;;
20855;SDS011;63058;49.424;8.420;2024-02-04T09:55:33;0.30;;;0.30;;
20855;SDS011;63058;49.424;8.420;2024-02-04T09:57:59;0.50;;;0.50;;
20855;SDS011;63058;49.424;8.420;2024-02-04T10:00:26;0.45;;;0.45;;
20855;SDS011;63058;49.424;8.420;2024-02-04T10:02:54;0.50;;;0.50;;
20855;SDS011;63058;49.424;8.420;2024-02-04T10:05:20;0.50;;;0.40;;
20855;SDS011;63058;49.424;8.420;2024-02-04T10:07:46;0.88;;;0.60;;
20855;SDS011;63058;49.424;8.420;2024-02-04T10:10:12;0.80;;;0.60;;
20855;SDS011;63058;49.424;8.420;2024-02-04T10:12:38;0.50;;;0.50;;
20855;SDS011;63058;49.424;8.420;2024-02-04T10:15:06;0.82;;;0.50;;
20855;SDS011;63058;49.424;8.420;2024-02-04T10:17:33;0.93;;;0.60;;
20855;SDS011;63058;49.424;8.420;2024-02-04T10:20:00;0.40;;;0.40;;
20855;SDS011;63058;49.424;8.420;2024-02-04T10:22:26;0.90;;;0.50;;
20855;SDS011;63058;49.424;8.420;2024-02-04T10:24:53;0.50;;;0.50;;
20855;SDS011;63058;49.424;8.420;2024-02-04T10:27:19;0.20;;;0.20;;
20855;SDS011;63058;49.424;8.420;2024-02-04T10:29:45;0.40;;;0.30;;
20855;SDS011;63058;49.424;8.420;2024-02-04T10:32:11;0.85;;;0.40;;
20855;SDS011;63058;49.424;8.420;2024-02-04T10:34:38;2.47;;;0.50;;
20855;SDS011;63058;49.424;8.420;2024-02-04T10:37:03;0.38;;;0.38;;
20855;SDS011;63058;49.424;8.420;2024-02-04T10:39:30;0.20;;;0.20;;
20855;SDS011;63058;49.424;8.420;2024-02-04T10:41:55;0.40;;;0.40;;
20855;SDS011;63058;49.424;8.420;2024-02-04T10:44:26;0.80;;;0.40;;
20855;SDS011;63058;49.424;8.420;2024-02-04T10:47:00;0.43;;;0.32;;
20855;SDS011;63058;49.424;8.420;2024-02-04T10:49:31;0.47;;;0.40;;
20855;SDS011;63058;49.424;8.420;2024-02-04T10:51:59;0.40;;;0.40;;
20855;SDS011;63058;49.424;8.420;2024-02-04T10:54:27;0.65;;;0.30;;
20855;SDS011;63058;49.424;8.420;2024-02-04T10:56:59;0.30;;;0.30;;
20855;SDS011;63058;49.424;8.420;2024-02-04T10:59:30;0.75;;;0.30;;
20855;SDS011;63058;49.424;8.420;2024-02-04T11:01:57;0.25;;;0.25;;
20855;SDS011;63058;49.424;8.420;2024-02-04T11:04:23;0.45;;;0.30;;
20855;SDS011;63058;49.424;8.420;2024-02-04T11:06:49;0.40;;;0.40;;
20855;SDS011;63058;49.424;8.420;2024-02-04T11:09:17;0.88;;;0.60;;
20855;SDS011;63058;49.424;8.420;2024-02-04T11:11:43;0.50;;;0.40;;
20855;SDS011;63058;49.424;8.420;2024-02-04T11:14:14;0.47;;;0.40;;
20855;SDS011;63058;49.424;8.420;2024-02-04T11:22:48;0.73;;;0.40;;
20855;SDS011;63058;49.424;8.420;2024-02-04T11:28:22;0.30;;;0.30;;
20855;SDS011;63058;49.424;8.420;2024-02-04T11:30:48;0.25;;;0.20;;
20855;SDS011;63058;49.424;8.420;2024-02-04T11:33:17;0.20;;;0.20;;
20855;SDS011;63058;49.424;8.420;2024-02-04T11:35:44;0.30;;;0.30;;
20855;SDS011;63058;49.424;8.420;2024-02-04T11:38:10;0.30;;;0.30;;
20855;SDS011;63058;49.424;8.420;2024-02-04T11:40:39;0.30;;;0.30;;
20855;SDS011;63058;49.424;8.420;2024-02-04T11:43:06;0.30;;;0.30;;
20855;SDS011;63058;49.424;8.420;2024-02-04T11:45:39;0.30;;;0.30;;
20855;SDS011;63058;49.424;8.420;2024-02-04T11:48:08;0.82;;;0.30;;
20855;SDS011;63058;49.424;8.420;2024-02-04T11:50:35;0.35;;;0.20;;
20855;SDS011;63058;49.424;8.420;2024-02-04T11:55:31;0.32;;;0.30;;
20855;SDS011;63058;49.424;8.420;2024-02-04T11:57:57;0.40;;;0.30;;
20855;SDS011;63058;49.424;8.420;2024-02-04T12:00:24;0.30;;;0.30;;
20855;SDS011;63058;49.424;8.420;2024-02-04T12:03:03;0.28;;;0.20;;
20855;SDS011;63058;49.424;8.420;2024-02-04T12:05:31;0.47;;;0.40;;
20855;SDS011;63058;49.424;8.420;2024-02-04T12:08:01;0.35;;;0.35;;
20855;SDS011;63058;49.424;8.420;2024-02-04T12:10:29;0.30;;;0.30;;
20855;SDS011;63058;49.424;8.420;2024-02-04T12:13:06;3.00;;;0.43;;
20855;SDS011;63058;49.424;8.420;2024-02-04T12:15:34;1.08;;;0.40;;
20855;SDS011;63058;49.424;8.420;2024-02-04T12:18:10;0.40;;;0.40;;
20855;SDS011;63058;49.424;8.420;2024-02-04T12:20:37;0.32;;;0.30;;
20855;SDS011;63058;49.424;8.420;2024-02-04T12:23:03;0.90;;;0.30;;
20855;SDS011;63058;49.424;8.420;2024-02-04T12:25:30;3.03;;;0.70;;
20855;SDS011;63058;49.424;8.420;2024-02-04T12:27:59;0.22;;;0.22;;
20855;SDS011;63058;49.424;8.420;2024-02-04T12:30:27;0.40;;;0.40;;
20855;SDS011;63058;49.424;8.420;2024-02-04T12:33:00;0.30;;;0.30;;
20855;SDS011;63058;49.424;8.420;2024-02-04T12:35:29;0.32;;;0.32;;
20855;SDS011;63058;49.424;8.420;2024-02-04T12:37:55;0.32;;;0.30;;
20855;SDS011;63058;49.424;8.420;2024-02-04T12:40:26;1.83;;;0.40;;
20855;SDS011;63058;49.424;8.420;2024-02-04T12:45:20;0.40;;;0.32;;
20855;SDS011;63058;49.424;8.420;2024-02-04T12:47:48;0.30;;;0.30;;
20855;SDS011;63058;49.424;8.420;2024-02-04T12:50:16;0.40;;;0.40;;
20855;SDS011;63058;49.424;8.420;2024-02-04T12:52:43;2.05;;;0.50;;
20855;SDS011;63058;49.424;8.420;2024-02-04T12:55:19;0.75;;;0.40;;
20855;SDS011;63058;49.424;8.420;2024-02-04T12:57:45;0.43;;;0.35;;
20855;SDS011;63058;49.424;8.420;2024-02-04T13:00:11;0.30;;;0.30;;
20855;SDS011;63058;49.424;8.420;2024-02-04T13:02:37;0.40;;;0.20;;
20855;SDS011;63058;49.424;8.420;2024-02-04T13:05:04;1.08;;;0.73;;
20855;SDS011;63058;49.424;8.420;2024-02-04T13:07:30;0.52;;;0.40;;
20855;SDS011;63058;49.424;8.420;2024-02-04T13:09:58;0.40;;;0.40;;
20855;SDS011;63058;49.424;8.420;2024-02-04T13:12:27;0.38;;;0.38;;
20855;SDS011;63058;49.424;8.420;2024-02-04T13:14:53;0.40;;;0.40;;
20855;SDS011;63058;49.424;8.420;2024-02-04T13:17:18;0.40;;;0.30;;
20855;SDS011;63058;49.424;8.420;2024-02-04T13:19:44;0.30;;;0.30;;
20855;SDS011;63058;49.424;8.420;2024-02-04T13:22:10;0.40;;;0.40;;
20855;SDS011;63058;49.424;8.420;2024-02-04T13:24:35;0.30;;;0.30;;
20855;SDS011;63058;49.424;8.420;2024-02-04T13:27:02;0.40;;;0.40;;
20855;SDS011;63058;49.424;8.420;2024-02-04T13:29:28;0.52;;;0.50;;
20855;SDS011;63058;49.424;8.420;2024-02-04T13:31:54;0.52;;;0.40;;
20855;SDS011;63058;49.424;8.420;2024-02-04T13:34:20;0.93;;;0.30;;
20855;SDS011;63058;49.424;8.420;2024-02-04T13:36:46;0.35;;;0.35;;
20855;SDS011;63058;49.424;8.420;2024-02-04T13:39:12;0.57;;;0.40;;
20855;SDS011;63058;49.424;8.420;2024-02-04T13:41:39;0.40;;;0.40;;
20855;SDS011;63058;49.424;8.420;2024-02-04T13:44:07;0.47;;;0.43;;
20855;SDS011;63058;49.424;8.420;2024-02-04T13:46:32;0.40;;;0.40;;
20855;SDS011;63058;49.424;8.420;2024-02-04T13:48:58;0.50;;;0.47;;
20855;SDS011;63058;49.424;8.420;2024-02-04T13:51:24;0.40;;;0.40;;
20855;SDS011;63058;49.424;8.420;2024-02-04T13:53:50;0.50;;;0.50;;
20855;SDS011;63058;49.424;8.420;2024-02-04T13:56:15;0.55;;;0.40;;
20855;SDS011;63058;49.424;8.420;2024-02-04T13:58:43;1.20;;;0.50;;
20855;SDS011;63058;49.424;8.420;2024-02-04T14:01:09;0.40;;;0.40;;
20855;SDS011;63058;49.424;8.420;2024-02-04T14:03:35;1.38;;;0.50;;
20855;SDS011;63058;49.424;8.420;2024-02-04T14:06:01;0.75;;;0.40;;
20855;SDS011;63058;49.424;8.420;2024-02-04T14:08:28;0.30;;;0.30;;
20855;SDS011;63058;49.424;8.420;2024-02-04T14:10:54;0.40;;;0.40;;
20855;SDS011;63058;49.424;8.420;2024-02-04T14:13:22;0.50;;;0.40;;
20855;SDS011;63058;49.424;8.420;2024-02-04T14:15:48;1.60;;;0.50;;
20855;SDS011;63058;49.424;8.420;2024-02-04T14:18:14;0.40;;;0.30;;
20855;SDS011;63058;49.424;8.420;2024-02-04T14:20:42;1.42;;;0.50;;
20855;SDS011;63058;49.424;8.420;2024-02-04T14:23:08;1.05;;;0.40;;
20855;SDS011;63058;49.424;8.420;2024-02-04T14:25:35;0.57;;;0.40;;
20855;SDS011;63058;49.424;8.420;2024-02-04T14:28:00;0.85;;;0.50;;
20855;SDS011;63058;49.424;8.420;2024-02-04T14:30:26;0.65;;;0.57;;
20855;SDS011;63058;49.424;8.420;2024-02-04T14:32:51;0.60;;;0.50;;
20855;SDS011;63058;49.424;8.420;2024-02-04T14:35:17;0.60;;;0.50;;
20855;SDS011;63058;49.424;8.420;2024-02-04T14:37:43;0.55;;;0.50;;
20855;SDS011;63058;49.424;8.420;2024-02-04T14:40:09;0.50;;;0.40;;
20855;SDS011;63058;49.424;8.420;2024-02-04T14:42:35;0.40;;;0.40;;
20855;SDS011;63058;49.424;8.420;2024-02-04T14:45:01;0.40;;;0.40;;
20855;SDS011;63058;49.424;8.420;2024-02-04T14:47:27;0.40;;;0.40;;
20855;SDS011;63058;49.424;8.420;2024-02-04T14:49:53;0.30;;;0.30;;
20855;SDS011;63058;49.424;8.420;2024-02-04T14:52:19;0.45;;;0.40;;
20855;SDS011;63058;49.424;8.420;2024-02-04T14:54:44;0.85;;;0.50;;
20855;SDS011;63058;49.424;8.420;2024-02-04T14:57:10;0.75;;;0.40;;
20855;SDS011;63058;49.424;8.420;2024-02-04T14:59:35;0.40;;;0.40;;
20855;SDS011;63058;49.424;8.420;2024-02-04T15:02:06;0.50;;;0.50;;